sensor_id;sensor_type;location;lat;lon;timestamp;P1;durP1;ratioP1;P2;durP2;ratioP2
38037;SDS011;23843;51.320;12.340;2023-03-17T05:31:03;1.40;;;0.80;;
38037;SDS011;23843;51.320;12.340;2023-03-17T05:33:49;1.67;;;1.00;;
38037;SDS011;23843;51.320;12.340;2023-03-17T05:36:35;1.93;;;1.13;;
38037;SDS011;23843;51.320;12.340;2023-03-17T05:39:21;2.83;;;1.20;;
38037;SDS011;23843;51.320;12.340;2023-03-17T05:42:07;1.77;;;1.00;;
38037;SDS011;23843;51.320;12.340;2023-03-17T05:44:52;1.50;;;1.07;;
38037;SDS011;23843;51.320;12.340;2023-03-17T05:47:39;1.40;;;0.97;;
38037;SDS011;23843;51.320;12.340;2023-03-17T05:50:25;1.47;;;0.90;;
38037;SDS011;23843;51.320;12.340;2023-03-17T05:53:11;2.47;;;1.33;;
38037;SDS011;23843;51.320;12.340;2023-03-17T05:55:57;2.40;;;1.17;;
38037;SDS011;23843;51.320;12.340;2023-03-17T05:58:43;1.97;;;1.40;;
38037;SDS011;23843;51.320;12.340;2023-03-17T06:01:28;3.07;;;1.30;;
38037;SDS011;23843;51.320;12.340;2023-03-17T06:04:16;2.87;;;1.27;;
38037;SDS011;23843;51.320;12.340;2023-03-17T06:07:02;1.67;;;1.13;;
38037;SDS011;23843;51.320;12.340;2023-03-17T06:09:48;1.73;;;1.10;;
38037;SDS011;23843;51.320;12.340;2023-03-17T06:12:34;2.13;;;1.30;;
38037;SDS011;23843;51.320;12.340;2023-03-17T06:15:20;1.60;;;1.10;;
38037;SDS011;23843;51.320;12.340;2023-03-17T06:18:05;2.00;;;1.20;;
38037;SDS011;23843;51.320;12.340;2023-03-17T06:20:53;2.73;;;1.10;;
38037;SDS011;23843;51.320;12.340;2023-03-17T06:23:39;1.90;;;1.10;;
38037;SDS011;23843;51.320;12.340;2023-03-17T06:26:24;2.10;;;1.20;;
38037;SDS011;23843;51.320;12.340;2023-03-17T06:29:10;4.77;;;1.80;;
38037;SDS011;23843;51.320;12.340;2023-03-17T06:31:56;2.20;;;1.47;;
38037;SDS011;23843;51.320;12.340;2023-03-17T06:34:42;2.93;;;1.60;;
38037;SDS011;23843;51.320;12.340;2023-03-17T06:37:29;2.83;;;1.90;;
38037;SDS011;23843;51.320;12.340;2023-03-17T06:40:15;2.43;;;1.70;;
38037;SDS011;23843;51.320;12.340;2023-03-17T06:43:01;3.63;;;1.90;;
38037;SDS011;23843;51.320;12.340;2023-03-17T06:45:47;3.10;;;1.40;;
38037;SDS011;23843;51.320;12.340;2023-03-17T06:48:33;1.80;;;1.33;;
38037;SDS011;23843;51.320;12.340;2023-03-17T06:51:19;4.37;;;2.00;;
38037;SDS011;23843;51.320;12.340;2023-03-17T06:54:06;3.90;;;2.30;;
38037;SDS011;23843;51.320;12.340;2023-03-17T06:56:52;4.37;;;1.70;;
38037;SDS011;23843;51.320;12.340;2023-03-17T06:59:38;1.80;;;1.30;;
38037;SDS011;23843;51.320;12.340;2023-03-17T07:02:23;1.80;;;1.30;;
38037;SDS011;23843;51.320;12.340;2023-03-17T07:05:09;3.23;;;1.50;;
38037;SDS011;23843;51.320;12.340;2023-03-17T07:07:55;1.70;;;1.30;;
38037;SDS011;23843;51.320;12.340;2023-03-17T07:10:43;2.23;;;1.33;;
38037;SDS011;23843;51.320;12.340;2023-03-17T07:13:29;2.90;;;1.70;;
38037;SDS011;23843;51.320;12.340;2023-03-17T07:16:15;2.63;;;1.60;;
38037;SDS011;23843;51.320;12.340;2023-03-17T07:19:01;2.87;;;1.77;;
38037;SDS011;23843;51.320;12.340;2023-03-17T07:21:47;2.90;;;1.60;;
38037;SDS011;23843;51.320;12.340;2023-03-17T07:24:32;1.40;;;1.17;;
38037;SDS011;23843;51.320;12.340;2023-03-17T07:27:21;3.30;;;1.33;;
38037;SDS011;23843;51.320;12.340;2023-03-17T07:30:07;2.53;;;1.40;;
38037;SDS011;23843;51.320;12.340;2023-03-17T07:32:54;3.53;;;1.63;;
38037;SDS011;23843;51.320;12.340;2023-03-17T07:35:41;2.20;;;1.40;;
38037;SDS011;23843;51.320;12.340;2023-03-17T07:38:27;2.00;;;1.33;;
38037;SDS011;23843;51.320;12.340;2023-03-17T07:41:13;1.97;;;1.30;;
38037;SDS011;23843;51.320;12.340;2023-03-17T07:44:00;2.37;;;1.70;;
38037;SDS011;23843;51.320;12.340;2023-03-17T07:46:46;4.90;;;1.80;;
38037;SDS011;23843;51.320;12.340;2023-03-17T07:49:32;1.60;;;1.23;;
38037;SDS011;23843;51.320;12.340;2023-03-17T07:52:18;3.17;;;2.03;;
38037;SDS011;23843;51.320;12.340;2023-03-17T07:55:04;2.03;;;1.47;;
38037;SDS011;23843;51.320;12.340;2023-03-17T07:57:50;3.27;;;1.57;;
38037;SDS011;23843;51.320;12.340;2023-03-17T08:00:37;3.10;;;1.67;;
38037;SDS011;23843;51.320;12.340;2023-03-17T08:03:23;2.50;;;2.00;;
38037;SDS011;23843;51.320;12.340;2023-03-17T08:06:10;1.93;;;1.53;;
38037;SDS011;23843;51.320;12.340;2023-03-17T08:08:55;3.47;;;2.00;;
38037;SDS011;23843;51.320;12.340;2023-03-17T08:11:41;2.43;;;1.40;;
38037;SDS011;23843;51.320;12.340;2023-03-17T08:14:27;2.10;;;1.40;;
38037;SDS011;23843;51.320;12.340;2023-03-17T08:17:14;3.05;;;1.35;;
38037;SDS011;23843;51.320;12.340;2023-03-17T08:20:00;2.28;;;1.50;;
38037;SDS011;23843;51.320;12.340;2023-03-17T08:22:52;3.03;;;1.73;;
38037;SDS011;23843;51.320;12.340;2023-03-17T08:25:39;1.85;;;1.33;;
38037;SDS011;23843;51.320;12.340;2023-03-17T08:28:25;1.73;;;1.52;;
38037;SDS011;23843;51.320;12.340;2023-03-17T08:31:12;1.63;;;1.52;;
38037;SDS011;23843;51.320;12.340;2023-03-17T08:34:01;1.40;;;1.15;;
38037;SDS011;23843;51.320;12.340;2023-03-17T08:36:47;2.30;;;1.60;;
38037;SDS011;23843;51.320;12.340;2023-03-17T08:39:32;1.88;;;1.52;;
38037;SDS011;23843;51.320;12.340;2023-03-17T08:42:18;2.78;;;2.40;;
38037;SDS011;23843;51.320;12.340;2023-03-17T08:44:44;1.45;;;1.20;;
38037;SDS011;23843;51.320;12.340;2023-03-17T08:47:09;1.55;;;1.20;;
38037;SDS011;23843;51.320;12.340;2023-03-17T08:49:36;2.42;;;1.40;;
38037;SDS011;23843;51.320;12.340;2023-03-17T08:52:02;1.73;;;1.20;;
38037;SDS011;23843;51.320;12.340;2023-03-17T08:54:28;2.17;;;1.20;;
38037;SDS011;23843;51.320;12.340;2023-03-17T08:56:53;1.38;;;1.17;;
38037;SDS011;23843;51.320;12.340;2023-03-17T08:59:19;1.63;;;1.40;;
38037;SDS011;23843;51.320;12.340;2023-03-17T09:01:44;3.42;;;2.58;;
38037;SDS011;23843;51.320;12.340;2023-03-17T09:04:09;2.05;;;1.85;;
38037;SDS011;23843;51.320;12.340;2023-03-17T09:06:36;1.65;;;1.40;;
38037;SDS011;23843;51.320;12.340;2023-03-17T09:09:02;1.35;;;1.20;;
38037;SDS011;23843;51.320;12.340;2023-03-17T09:11:28;1.95;;;1.40;;
38037;SDS011;23843;51.320;12.340;2023-03-17T09:13:54;1.77;;;1.25;;
38037;SDS011;23843;51.320;12.340;2023-03-17T09:16:20;1.42;;;1.08;;
38037;SDS011;23843;51.320;12.340;2023-03-17T09:18:46;2.33;;;1.20;;
38037;SDS011;23843;51.320;12.340;2023-03-17T09:21:12;1.70;;;1.30;;
38037;SDS011;23843;51.320;12.340;2023-03-17T09:23:39;2.70;;;1.42;;
38037;SDS011;23843;51.320;12.340;2023-03-17T09:26:05;2.88;;;1.50;;
38037;SDS011;23843;51.320;12.340;2023-03-17T09:28:30;2.60;;;1.90;;
38037;SDS011;23843;51.320;12.340;2023-03-17T09:30:56;1.85;;;1.60;;
38037;SDS011;23843;51.320;12.340;2023-03-17T09:33:22;3.00;;;2.22;;
38037;SDS011;23843;51.320;12.340;2023-03-17T09:35:50;1.23;;;1.13;;
38037;SDS011;23843;51.320;12.340;2023-03-17T09:38:15;3.10;;;1.35;;
38037;SDS011;23843;51.320;12.340;2023-03-17T09:40:45;1.90;;;1.60;;
38037;SDS011;23843;51.320;12.340;2023-03-17T09:43:15;1.42;;;1.20;;
38037;SDS011;23843;51.320;12.340;2023-03-17T09:45:46;1.80;;;1.30;;
38037;SDS011;23843;51.320;12.340;2023-03-17T09:48:15;2.47;;;1.42;;
38037;SDS011;23843;51.320;12.340;2023-03-17T09:50:49;2.72;;;1.40;;
38037;SDS011;23843;51.320;12.340;2023-03-17T09:53:20;2.28;;;1.30;;
38037;SDS011;23843;51.320;12.340;2023-03-17T09:55:51;1.13;;;1.02;;
38037;SDS011;23843;51.320;12.340;2023-03-17T09:58:23;3.13;;;1.30;;
38037;SDS011;23843;51.320;12.340;2023-03-17T10:00:53;1.40;;;1.00;;
38037;SDS011;23843;51.320;12.340;2023-03-17T10:03:19;1.63;;;1.10;;
38037;SDS011;23843;51.320;12.340;2023-03-17T10:05:46;1.85;;;1.10;;
38037;SDS011;23843;51.320;12.340;2023-03-17T10:08:13;1.65;;;1.17;;
38037;SDS011;23843;51.320;12.340;2023-03-17T10:10:42;2.15;;;1.30;;
38037;SDS011;23843;51.320;12.340;2023-03-17T10:13:15;1.52;;;1.17;;
38037;SDS011;23843;51.320;12.340;2023-03-17T10:15:51;1.73;;;1.05;;
38037;SDS011;23843;51.320;12.340;2023-03-17T10:18:23;1.20;;;1.10;;
38037;SDS011;23843;51.320;12.340;2023-03-17T10:20:53;1.23;;;1.13;;
38037;SDS011;23843;51.320;12.340;2023-03-17T10:23:22;2.63;;;1.40;;
38037;SDS011;23843;51.320;12.340;2023-03-17T10:25:51;1.48;;;1.17;;
38037;SDS011;23843;51.320;12.340;2023-03-17T10:28:25;2.58;;;1.60;;
38037;SDS011;23843;51.320;12.340;2023-03-17T10:30:53;1.50;;;1.10;;
38037;SDS011;23843;51.320;12.340;2023-03-17T10:33:21;1.83;;;1.20;;
38037;SDS011;23843;51.320;12.340;2023-03-17T10:35:47;1.20;;;1.10;;
38037;SDS011;23843;51.320;12.340;2023-03-17T10:38:14;3.17;;;1.27;;
38037;SDS011;23843;51.320;12.340;2023-03-17T10:40:42;1.60;;;1.20;;
38037;SDS011;23843;51.320;12.340;2023-03-17T10:43:12;1.90;;;1.20;;
38037;SDS011;23843;51.320;12.340;2023-03-17T10:45:53;2.63;;;1.50;;
38037;SDS011;23843;51.320;12.340;2023-03-17T10:48:22;2.33;;;1.13;;
38037;SDS011;23843;51.320;12.340;2023-03-17T10:50:50;1.60;;;1.17;;
38037;SDS011;23843;51.320;12.340;2023-03-17T10:53:16;2.15;;;1.17;;
38037;SDS011;23843;51.320;12.340;2023-03-17T10:55:46;1.80;;;1.47;;
38037;SDS011;23843;51.320;12.340;2023-03-17T10:58:14;1.30;;;1.20;;
38037;SDS011;23843;51.320;12.340;2023-03-17T11:00:47;1.57;;;0.90;;
38037;SDS011;23843;51.320;12.340;2023-03-17T11:03:20;1.17;;;1.00;;
38037;SDS011;23843;51.320;12.340;2023-03-17T11:05:53;2.10;;;1.23;;
38037;SDS011;23843;51.320;12.340;2023-03-17T11:08:19;0.70;;;0.70;;
38037;SDS011;23843;51.320;12.340;2023-03-17T11:10:45;2.07;;;0.93;;
38037;SDS011;23843;51.320;12.340;2023-03-17T11:13:18;1.95;;;1.15;;
38037;SDS011;23843;51.320;12.340;2023-03-17T11:15:45;1.80;;;1.20;;
38037;SDS011;23843;51.320;12.340;2023-03-17T11:18:17;2.00;;;1.23;;
38037;SDS011;23843;51.320;12.340;2023-03-17T11:20:47;1.40;;;1.00;;
38037;SDS011;23843;51.320;12.340;2023-03-17T11:23:22;1.70;;;0.93;;
38037;SDS011;23843;51.320;12.340;2023-03-17T11:26:00;1.45;;;1.05;;
38037;SDS011;23843;51.320;12.340;2023-03-17T11:28:38;1.70;;;1.40;;
38037;SDS011;23843;51.320;12.340;2023-03-17T11:31:08;1.20;;;0.90;;
38037;SDS011;23843;51.320;12.340;2023-03-17T11:33:47;1.23;;;0.90;;
38037;SDS011;23843;51.320;12.340;2023-03-17T11:36:29;1.03;;;0.80;;
38037;SDS011;23843;51.320;12.340;2023-03-17T11:39:09;1.53;;;1.20;;
38037;SDS011;23843;51.320;12.340;2023-03-17T11:41:42;2.50;;;1.13;;
38037;SDS011;23843;51.320;12.340;2023-03-17T11:47:30;1.00;;;0.90;;
38037;SDS011;23843;51.320;12.340;2023-03-17T11:50:10;3.03;;;1.33;;
38037;SDS011;23843;51.320;12.340;2023-03-17T11:52:47;1.57;;;1.03;;
38037;SDS011;23843;51.320;12.340;2023-03-17T11:55:23;4.27;;;1.30;;
38037;SDS011;23843;51.320;12.340;2023-03-17T11:58:02;2.25;;;1.05;;
38037;SDS011;23843;51.320;12.340;2023-03-17T12:00:39;1.60;;;1.00;;
38037;SDS011;23843;51.320;12.340;2023-03-17T12:03:11;1.80;;;1.30;;
38037;SDS011;23843;51.320;12.340;2023-03-17T12:05:44;1.53;;;1.03;;
38037;SDS011;23843;51.320;12.340;2023-03-17T12:08:19;2.67;;;0.97;;
38037;SDS011;23843;51.320;12.340;2023-03-17T12:10:52;1.50;;;0.97;;
38037;SDS011;23843;51.320;12.340;2023-03-17T12:13:23;1.60;;;1.00;;
38037;SDS011;23843;51.320;12.340;2023-03-17T12:15:55;1.38;;;0.90;;
38037;SDS011;23843;51.320;12.340;2023-03-17T12:18:25;1.07;;;0.63;;
38037;SDS011;23843;51.320;12.340;2023-03-17T12:20:56;1.13;;;1.03;;
38037;SDS011;23843;51.320;12.340;2023-03-17T12:23:27;1.67;;;0.90;;
38037;SDS011;23843;51.320;12.340;2023-03-17T12:26:00;1.10;;;0.80;;
38037;SDS011;23843;51.320;12.340;2023-03-17T12:28:29;0.60;;;0.60;;
38037;SDS011;23843;51.320;12.340;2023-03-17T12:31:01;3.40;;;0.90;;
38037;SDS011;23843;51.320;12.340;2023-03-17T12:33:32;0.87;;;0.70;;
38037;SDS011;23843;51.320;12.340;2023-03-17T12:36:03;1.40;;;1.00;;
38037;SDS011;23843;51.320;12.340;2023-03-17T12:38:32;1.27;;;0.90;;
38037;SDS011;23843;51.320;12.340;2023-03-17T12:41:21;0.60;;;0.60;;
38037;SDS011;23843;51.320;12.340;2023-03-17T12:43:58;2.28;;;0.60;;
38037;SDS011;23843;51.320;12.340;2023-03-17T12:46:33;0.70;;;0.65;;
38037;SDS011;23843;51.320;12.340;2023-03-17T12:49:21;1.70;;;0.70;;
38037;SDS011;23843;51.320;12.340;2023-03-17T12:51:58;1.40;;;1.13;;
38037;SDS011;23843;51.320;12.340;2023-03-17T12:54:29;1.40;;;1.20;;
38037;SDS011;23843;51.320;12.340;2023-03-17T12:57:02;1.10;;;0.70;;
38037;SDS011;23843;51.320;12.340;2023-03-17T12:59:30;1.08;;;0.60;;
38037;SDS011;23843;51.320;12.340;2023-03-17T13:01:56;0.77;;;0.77;;
38037;SDS011;23843;51.320;12.340;2023-03-17T13:04:32;1.40;;;0.80;;
38037;SDS011;23843;51.320;12.340;2023-03-17T13:07:02;1.20;;;0.90;;
38037;SDS011;23843;51.320;12.340;2023-03-17T13:09:40;1.80;;;0.93;;
38037;SDS011;23843;51.320;12.340;2023-03-17T13:15:00;2.05;;;1.45;;
38037;SDS011;23843;51.320;12.340;2023-03-17T13:17:29;1.13;;;0.90;;
38037;SDS011;23843;51.320;12.340;2023-03-17T13:20:02;0.80;;;0.80;;
38037;SDS011;23843;51.320;12.340;2023-03-17T13:22:37;0.50;;;0.50;;
38037;SDS011;23843;51.320;12.340;2023-03-17T13:25:11;1.30;;;0.60;;
38037;SDS011;23843;51.320;12.340;2023-03-17T13:27:39;0.95;;;0.60;;
38037;SDS011;23843;51.320;12.340;2023-03-17T13:33:21;0.57;;;0.57;;
38037;SDS011;23843;51.320;12.340;2023-03-17T13:35:49;0.77;;;0.70;;
38037;SDS011;23843;51.320;12.340;2023-03-17T13:38:36;0.57;;;0.57;;
38037;SDS011;23843;51.320;12.340;2023-03-17T13:41:12;1.13;;;0.85;;
38037;SDS011;23843;51.320;12.340;2023-03-17T13:43:53;1.35;;;0.70;;
38037;SDS011;23843;51.320;12.340;2023-03-17T13:46:29;1.38;;;0.90;;
38037;SDS011;23843;51.320;12.340;2023-03-17T13:49:12;0.85;;;0.70;;
38037;SDS011;23843;51.320;12.340;2023-03-17T13:51:43;2.17;;;0.90;;
38037;SDS011;23843;51.320;12.340;2023-03-17T13:54:20;1.30;;;0.90;;
38037;SDS011;23843;51.320;12.340;2023-03-17T13:56:54;1.17;;;0.82;;
38037;SDS011;23843;51.320;12.340;2023-03-17T13:59:21;1.30;;;1.20;;
38037;SDS011;23843;51.320;12.340;2023-03-17T14:01:56;1.83;;;0.80;;
38037;SDS011;23843;51.320;12.340;2023-03-17T14:04:26;1.75;;;0.90;;
38037;SDS011;23843;51.320;12.340;2023-03-17T14:06:54;1.90;;;0.80;;
38037;SDS011;23843;51.320;12.340;2023-03-17T14:09:29;2.72;;;0.90;;
38037;SDS011;23843;51.320;12.340;2023-03-17T14:12:01;2.00;;;0.63;;
38037;SDS011;23843;51.320;12.340;2023-03-17T14:14:33;1.45;;;0.90;;
38037;SDS011;23843;51.320;12.340;2023-03-17T14:17:07;2.40;;;0.90;;
38037;SDS011;23843;51.320;12.340;2023-03-17T14:19:40;1.33;;;1.02;;
38037;SDS011;23843;51.320;12.340;2023-03-17T14:22:19;1.80;;;0.95;;
38037;SDS011;23843;51.320;12.340;2023-03-17T14:24:50;1.25;;;1.05;;
38037;SDS011;23843;51.320;12.340;2023-03-17T14:27:16;1.95;;;1.45;;
38037;SDS011;23843;51.320;12.340;2023-03-17T14:29:42;2.53;;;1.37;;
38037;SDS011;23843;51.320;12.340;2023-03-17T14:32:11;2.17;;;1.10;;
38037;SDS011;23843;51.320;12.340;2023-03-17T14:34:40;1.60;;;1.10;;
38037;SDS011;23843;51.320;12.340;2023-03-17T14:37:08;1.33;;;1.20;;
38037;SDS011;23843;51.320;12.340;2023-03-17T14:39:35;2.50;;;1.60;;
38037;SDS011;23843;51.320;12.340;2023-03-17T14:42:10;1.73;;;1.43;;
38037;SDS011;23843;51.320;12.340;2023-03-17T14:44:36;1.73;;;1.10;;
38037;SDS011;23843;51.320;12.340;2023-03-17T14:47:02;1.53;;;1.20;;
38037;SDS011;23843;51.320;12.340;2023-03-17T14:49:29;2.07;;;1.50;;
38037;SDS011;23843;51.320;12.340;2023-03-17T14:51:55;2.27;;;1.70;;
38037;SDS011;23843;51.320;12.340;2023-03-17T14:54:22;2.83;;;2.03;;
38037;SDS011;23843;51.320;12.340;2023-03-17T14:56:51;2.93;;;1.90;;
38037;SDS011;23843;51.320;12.340;2023-03-17T14:59:29;3.13;;;1.77;;
38037;SDS011;23843;51.320;12.340;2023-03-17T15:02:15;1.97;;;1.47;;
38037;SDS011;23843;51.320;12.340;2023-03-17T15:04:49;3.50;;;1.83;;
38037;SDS011;23843;51.320;12.340;2023-03-17T15:07:36;2.97;;;2.00;;
38037;SDS011;23843;51.320;12.340;2023-03-17T15:10:03;3.60;;;2.50;;
38037;SDS011;23843;51.320;12.340;2023-03-17T15:12:29;2.10;;;1.63;;
38037;SDS011;23843;51.320;12.340;2023-03-17T15:14:58;2.70;;;1.77;;
38037;SDS011;23843;51.320;12.340;2023-03-17T15:17:30;2.43;;;1.60;;
38037;SDS011;23843;51.320;12.340;2023-03-17T15:19:59;1.90;;;1.40;;
38037;SDS011;23843;51.320;12.340;2023-03-17T15:22:28;2.63;;;1.50;;
38037;SDS011;23843;51.320;12.340;2023-03-17T15:25:00;3.20;;;1.83;;
38037;SDS011;23843;51.320;12.340;2023-03-17T15:27:27;3.57;;;1.57;;
38037;SDS011;23843;51.320;12.340;2023-03-17T15:29:53;3.07;;;1.63;;
38037;SDS011;23843;51.320;12.340;2023-03-17T15:32:21;2.10;;;1.60;;
38037;SDS011;23843;51.320;12.340;2023-03-17T15:34:49;2.40;;;1.50;;
38037;SDS011;23843;51.320;12.340;2023-03-17T15:37:16;2.53;;;1.40;;
38037;SDS011;23843;51.320;12.340;2023-03-17T15:39:43;2.70;;;1.60;;
38037;SDS011;23843;51.320;12.340;2023-03-17T15:42:08;2.30;;;1.60;;
38037;SDS011;23843;51.320;12.340;2023-03-17T15:44:34;2.47;;;1.70;;
38037;SDS011;23843;51.320;12.340;2023-03-17T15:46:59;2.37;;;1.40;;
38037;SDS011;23843;51.320;12.340;2023-03-17T15:49:27;1.70;;;1.50;;
38037;SDS011;23843;51.320;12.340;2023-03-17T15:51:52;2.23;;;1.30;;
38037;SDS011;23843;51.320;12.340;2023-03-17T15:54:18;3.20;;;2.00;;
38037;SDS011;23843;51.320;12.340;2023-03-17T15:56:43;2.37;;;1.43;;
38037;SDS011;23843;51.320;12.340;2023-03-17T15:59:09;2.50;;;1.33;;
38037;SDS011;23843;51.320;12.340;2023-03-17T16:01:34;1.60;;;1.20;;
38037;SDS011;23843;51.320;12.340;2023-03-17T16:04:01;2.03;;;1.20;;
38037;SDS011;23843;51.320;12.340;2023-03-17T16:06:28;1.77;;;1.20;;
38037;SDS011;23843;51.320;12.340;2023-03-17T16:08:56;2.43;;;1.40;;
38037;SDS011;23843;51.320;12.340;2023-03-17T16:11:22;1.90;;;1.47;;
38037;SDS011;23843;51.320;12.340;2023-03-17T16:13:47;3.67;;;1.40;;
38037;SDS011;23843;51.320;12.340;2023-03-17T16:16:14;2.70;;;1.50;;
38037;SDS011;23843;51.320;12.340;2023-03-17T16:18:42;2.60;;;1.40;;
38037;SDS011;23843;51.320;12.340;2023-03-17T16:21:08;1.87;;;1.23;;
38037;SDS011;23843;51.320;12.340;2023-03-17T16:23:35;2.37;;;1.43;;
38037;SDS011;23843;51.320;12.340;2023-03-17T16:26:01;1.60;;;1.20;;
38037;SDS011;23843;51.320;12.340;2023-03-17T16:28:27;2.27;;;1.30;;
38037;SDS011;23843;51.320;12.340;2023-03-17T16:30:54;1.53;;;1.40;;
38037;SDS011;23843;51.320;12.340;2023-03-17T16:33:22;1.77;;;1.30;;
38037;SDS011;23843;51.320;12.340;2023-03-17T16:35:48;2.10;;;1.60;;
38037;SDS011;23843;51.320;12.340;2023-03-17T16:38:15;1.93;;;1.40;;
38037;SDS011;23843;51.320;12.340;2023-03-17T16:40:43;2.23;;;1.40;;
38037;SDS011;23843;51.320;12.340;2023-03-17T16:43:13;2.80;;;1.70;;
38037;SDS011;23843;51.320;12.340;2023-03-17T16:45:42;2.13;;;1.50;;
38037;SDS011;23843;51.320;12.340;2023-03-17T16:48:09;2.50;;;1.60;;
38037;SDS011;23843;51.320;12.340;2023-03-17T16:50:37;2.43;;;1.50;;
38037;SDS011;23843;51.320;12.340;2023-03-17T16:53:02;2.27;;;1.77;;
38037;SDS011;23843;51.320;12.340;2023-03-17T16:55:28;2.90;;;1.80;;
38037;SDS011;23843;51.320;12.340;2023-03-17T16:57:56;2.17;;;1.30;;
38037;SDS011;23843;51.320;12.340;2023-03-17T17:00:25;2.17;;;1.50;;
38037;SDS011;23843;51.320;12.340;2023-03-17T17:02:52;2.37;;;1.77;;
38037;SDS011;23843;51.320;12.340;2023-03-17T17:05:19;2.53;;;1.50;;
38037;SDS011;23843;51.320;12.340;2023-03-17T17:07:46;3.13;;;1.50;;
38037;SDS011;23843;51.320;12.340;2023-03-17T17:10:14;2.40;;;1.50;;
38037;SDS011;23843;51.320;12.340;2023-03-17T17:12:41;1.90;;;1.50;;
38037;SDS011;23843;51.320;12.340;2023-03-17T17:15:09;3.63;;;1.93;;
38037;SDS011;23843;51.320;12.340;2023-03-17T17:17:36;3.93;;;2.43;;
38037;SDS011;23843;51.320;12.340;2023-03-17T17:20:03;3.87;;;2.10;;
38037;SDS011;23843;51.320;12.340;2023-03-17T17:22:31;3.30;;;2.20;;
38037;SDS011;23843;51.320;12.340;2023-03-17T17:24:56;3.37;;;1.80;;
38037;SDS011;23843;51.320;12.340;2023-03-17T17:27:22;3.00;;;2.20;;
38037;SDS011;23843;51.320;12.340;2023-03-17T17:29:47;3.80;;;2.77;;
38037;SDS011;23843;51.320;12.340;2023-03-17T17:32:14;5.73;;;3.10;;
38037;SDS011;23843;51.320;12.340;2023-03-17T17:34:39;6.67;;;4.17;;
38037;SDS011;23843;51.320;12.340;2023-03-17T17:37:05;4.57;;;2.87;;
38037;SDS011;23843;51.320;12.340;2023-03-17T17:39:33;5.17;;;3.60;;
38037;SDS011;23843;51.320;12.340;2023-03-17T17:41:58;4.27;;;3.10;;
38037;SDS011;23843;51.320;12.340;2023-03-17T17:44:24;6.73;;;3.93;;
38037;SDS011;23843;51.320;12.340;2023-03-17T17:46:49;5.40;;;3.97;;
38037;SDS011;23843;51.320;12.340;2023-03-17T17:49:16;5.47;;;3.67;;
38037;SDS011;23843;51.320;12.340;2023-03-17T17:51:42;6.43;;;3.40;;
38037;SDS011;23843;51.320;12.340;2023-03-17T17:54:07;5.70;;;3.50;;
38037;SDS011;23843;51.320;12.340;2023-03-17T17:56:33;6.73;;;3.43;;
38037;SDS011;23843;51.320;12.340;2023-03-17T17:58:58;6.90;;;4.17;;
38037;SDS011;23843;51.320;12.340;2023-03-17T18:01:24;8.90;;;4.07;;
38037;SDS011;23843;51.320;12.340;2023-03-17T18:03:49;6.17;;;3.40;;
38037;SDS011;23843;51.320;12.340;2023-03-17T18:06:16;6.17;;;3.50;;
38037;SDS011;23843;51.320;12.340;2023-03-17T18:08:42;4.90;;;3.70;;
38037;SDS011;23843;51.320;12.340;2023-03-17T18:11:08;6.30;;;4.10;;
38037;SDS011;23843;51.320;12.340;2023-03-17T18:13:33;4.90;;;3.47;;
38037;SDS011;23843;51.320;12.340;2023-03-17T18:15:59;4.40;;;2.90;;
38037;SDS011;23843;51.320;12.340;2023-03-17T18:18:24;4.27;;;3.10;;
38037;SDS011;23843;51.320;12.340;2023-03-17T18:20:50;6.50;;;3.87;;
38037;SDS011;23843;51.320;12.340;2023-03-17T18:23:17;6.80;;;4.30;;
38037;SDS011;23843;51.320;12.340;2023-03-17T18:25:42;6.23;;;3.77;;
38037;SDS011;23843;51.320;12.340;2023-03-17T18:28:08;5.27;;;3.40;;
38037;SDS011;23843;51.320;12.340;2023-03-17T18:30:33;6.83;;;4.20;;
38037;SDS011;23843;51.320;12.340;2023-03-17T18:33:01;7.60;;;4.40;;
38037;SDS011;23843;51.320;12.340;2023-03-17T18:35:30;7.60;;;4.30;;
38037;SDS011;23843;51.320;12.340;2023-03-17T18:37:55;4.87;;;3.60;;
38037;SDS011;23843;51.320;12.340;2023-03-17T18:40:23;6.67;;;4.10;;
38037;SDS011;23843;51.320;12.340;2023-03-17T18:42:49;6.33;;;4.10;;
38037;SDS011;23843;51.320;12.340;2023-03-17T18:45:15;7.43;;;4.90;;
38037;SDS011;23843;51.320;12.340;2023-03-17T18:47:41;5.90;;;4.23;;
38037;SDS011;23843;51.320;12.340;2023-03-17T18:50:11;5.93;;;4.00;;
38037;SDS011;23843;51.320;12.340;2023-03-17T18:52:38;7.17;;;4.93;;
38037;SDS011;23843;51.320;12.340;2023-03-17T18:55:04;7.37;;;4.80;;
38037;SDS011;23843;51.320;12.340;2023-03-17T18:57:32;8.23;;;4.77;;
38037;SDS011;23843;51.320;12.340;2023-03-17T18:59:57;6.20;;;4.67;;
38037;SDS011;23843;51.320;12.340;2023-03-17T19:02:23;7.83;;;4.90;;
38037;SDS011;23843;51.320;12.340;2023-03-17T19:04:48;8.07;;;5.37;;
38037;SDS011;23843;51.320;12.340;2023-03-17T19:07:14;7.80;;;5.17;;
38037;SDS011;23843;51.320;12.340;2023-03-17T19:09:40;8.37;;;5.23;;
38037;SDS011;23843;51.320;12.340;2023-03-17T19:12:06;7.13;;;5.03;;
38037;SDS011;23843;51.320;12.340;2023-03-17T19:17:00;8.27;;;4.77;;
38037;SDS011;23843;51.320;12.340;2023-03-17T19:19:26;7.53;;;4.90;;
38037;SDS011;23843;51.320;12.340;2023-03-17T19:21:51;7.07;;;4.40;;
38037;SDS011;23843;51.320;12.340;2023-03-17T19:24:17;6.37;;;4.63;;
38037;SDS011;23843;51.320;12.340;2023-03-17T19:26:42;6.33;;;4.77;;
38037;SDS011;23843;51.320;12.340;2023-03-17T19:29:08;6.97;;;4.77;;
38037;SDS011;23843;51.320;12.340;2023-03-17T19:31:35;6.73;;;4.50;;
38037;SDS011;23843;51.320;12.340;2023-03-17T19:34:01;5.97;;;4.70;;
38037;SDS011;23843;51.320;12.340;2023-03-17T19:36:26;9.07;;;4.83;;
38037;SDS011;23843;51.320;12.340;2023-03-17T19:38:59;7.33;;;4.83;;
38037;SDS011;23843;51.320;12.340;2023-03-17T19:41:25;6.83;;;4.33;;
38037;SDS011;23843;51.320;12.340;2023-03-17T19:43:50;6.33;;;4.43;;
38037;SDS011;23843;51.320;12.340;2023-03-17T19:46:16;6.77;;;4.60;;
38037;SDS011;23843;51.320;12.340;2023-03-17T19:48:43;8.93;;;5.90;;
38037;SDS011;23843;51.320;12.340;2023-03-17T19:51:08;8.23;;;5.27;;
38037;SDS011;23843;51.320;12.340;2023-03-17T19:53:34;7.53;;;4.37;;
38037;SDS011;23843;51.320;12.340;2023-03-17T19:55:59;7.07;;;4.37;;
38037;SDS011;23843;51.320;12.340;2023-03-17T19:58:25;9.47;;;4.87;;
38037;SDS011;23843;51.320;12.340;2023-03-17T20:00:51;7.30;;;4.07;;
38037;SDS011;23843;51.320;12.340;2023-03-17T20:03:16;6.30;;;4.67;;
38037;SDS011;23843;51.320;12.340;2023-03-17T20:05:44;8.10;;;4.73;;
38037;SDS011;23843;51.320;12.340;2023-03-17T20:08:10;6.70;;;4.53;;
38037;SDS011;23843;51.320;12.340;2023-03-17T20:10:37;5.90;;;4.10;;
38037;SDS011;23843;51.320;12.340;2023-03-17T20:13:02;5.03;;;3.60;;
38037;SDS011;23843;51.320;12.340;2023-03-17T20:15:28;7.10;;;4.10;;
38037;SDS011;23843;51.320;12.340;2023-03-17T20:17:54;7.70;;;4.53;;
38037;SDS011;23843;51.320;12.340;2023-03-17T20:20:19;5.73;;;4.10;;
38037;SDS011;23843;51.320;12.340;2023-03-17T20:22:46;7.63;;;4.67;;
38037;SDS011;23843;51.320;12.340;2023-03-17T20:25:12;5.00;;;3.30;;
38037;SDS011;23843;51.320;12.340;2023-03-17T20:27:37;6.13;;;3.90;;
38037;SDS011;23843;51.320;12.340;2023-03-17T20:30:03;7.13;;;3.77;;
38037;SDS011;23843;51.320;12.340;2023-03-17T20:32:30;6.80;;;3.90;;
38037;SDS011;23843;51.320;12.340;2023-03-17T20:34:56;7.43;;;4.63;;
38037;SDS011;23843;51.320;12.340;2023-03-17T20:37:21;7.70;;;4.33;;
38037;SDS011;23843;51.320;12.340;2023-03-17T20:39:48;6.27;;;4.43;;
38037;SDS011;23843;51.320;12.340;2023-03-17T20:42:14;6.00;;;4.03;;
38037;SDS011;23843;51.320;12.340;2023-03-17T20:44:40;5.63;;;3.90;;